sensor_id;sensor_type;location;lat;lon;timestamp;temperature;humidity
10722;DHT22;5412;59.450;18.124;2023-08-24T00:00:53;18.50;99.90
10722;DHT22;5412;59.450;18.124;2023-08-24T00:03:19;18.40;99.90
10722;DHT22;5412;59.450;18.124;2023-08-24T00:05:48;18.40;99.90
10722;DHT22;5412;59.450;18.124;2023-08-24T00:08:13;18.40;99.90
10722;DHT22;5412;59.450;18.124;2023-08-24T00:10:39;18.40;99.90
10722;DHT22;5412;59.450;18.124;2023-08-24T00:13:09;18.40;99.90
10722;DHT22;5412;59.450;18.124;2023-08-24T00:15:35;18.40;99.90
10722;DHT22;5412;59.450;18.124;2023-08-24T00:18:02;18.30;99.90
10722;DHT22;5412;59.450;18.124;2023-08-24T00:20:27;18.30;99.90
10722;DHT22;5412;59.450;18.124;2023-08-24T00:22:53;18.30;99.90
10722;DHT22;5412;59.450;18.124;2023-08-24T00:25:19;18.40;99.90
10722;DHT22;5412;59.450;18.124;2023-08-24T00:27:45;18.20;99.90
10722;DHT22;5412;59.450;18.124;2023-08-24T00:30:11;18.30;99.90
10722;DHT22;5412;59.450;18.124;2023-08-24T00:32:37;18.30;99.90
10722;DHT22;5412;59.450;18.124;2023-08-24T00:35:03;18.30;99.90
10722;DHT22;5412;59.450;18.124;2023-08-24T00:37:33;18.20;99.90
10722;DHT22;5412;59.450;18.124;2023-08-24T00:40:00;18.30;99.90
10722;DHT22;5412;59.450;18.124;2023-08-24T00:42:28;18.30;99.90
10722;DHT22;5412;59.450;18.124;2023-08-24T00:44:54;18.40;99.90
10722;DHT22;5412;59.450;18.124;2023-08-24T00:47:20;18.20;99.90
10722;DHT22;5412;59.450;18.124;2023-08-24T00:49:46;18.20;99.90
10722;DHT22;5412;59.450;18.124;2023-08-24T00:52:13;18.10;99.90
10722;DHT22;5412;59.450;18.124;2023-08-24T00:54:39;18.10;99.90
10722;DHT22;5412;59.450;18.124;2023-08-24T00:57:06;18.20;99.90
10722;DHT22;5412;59.450;18.124;2023-08-24T00:59:33;18.10;99.90
10722;DHT22;5412;59.450;18.124;2023-08-24T01:01:59;18.10;99.90
10722;DHT22;5412;59.450;18.124;2023-08-24T01:04:25;18.20;99.90
10722;DHT22;5412;59.450;18.124;2023-08-24T01:06:51;18.20;99.90
10722;DHT22;5412;59.450;18.124;2023-08-24T01:09:18;18.20;99.90
10722;DHT22;5412;59.450;18.124;2023-08-24T01:17:05;18.10;99.90
10722;DHT22;5412;59.450;18.124;2023-08-24T01:19:43;18.10;99.90
10722;DHT22;5412;59.450;18.124;2023-08-24T01:27:26;18.10;99.90
10722;DHT22;5412;59.450;18.124;2023-08-24T01:29:54;18.00;99.90
10722;DHT22;5412;59.450;18.124;2023-08-24T01:32:22;18.00;99.90
10722;DHT22;5412;59.450;18.124;2023-08-24T01:34:48;18.00;99.90
10722;DHT22;5412;59.450;18.124;2023-08-24T01:37:14;18.00;99.90
10722;DHT22;5412;59.450;18.124;2023-08-24T01:39:46;18.00;99.90
10722;DHT22;5412;59.450;18.124;2023-08-24T01:42:19;18.00;99.90
10722;DHT22;5412;59.450;18.124;2023-08-24T01:44:50;17.90;99.90
10722;DHT22;5412;59.450;18.124;2023-08-24T01:47:17;17.90;99.90
10722;DHT22;5412;59.450;18.124;2023-08-24T01:49:44;17.90;99.90
10722;DHT22;5412;59.450;18.124;2023-08-24T01:52:10;17.90;99.90
10722;DHT22;5412;59.450;18.124;2023-08-24T01:54:37;18.00;99.90
10722;DHT22;5412;59.450;18.124;2023-08-24T01:57:05;18.10;99.90
10722;DHT22;5412;59.450;18.124;2023-08-24T01:59:31;18.00;99.90
10722;DHT22;5412;59.450;18.124;2023-08-24T02:01:57;18.10;99.90
10722;DHT22;5412;59.450;18.124;2023-08-24T02:04:23;18.10;99.90
10722;DHT22;5412;59.450;18.124;2023-08-24T02:06:48;18.10;99.90
10722;DHT22;5412;59.450;18.124;2023-08-24T02:09:14;18.10;99.90
10722;DHT22;5412;59.450;18.124;2023-08-24T02:11:40;18.10;99.90
10722;DHT22;5412;59.450;18.124;2023-08-24T02:14:05;18.10;99.90
10722;DHT22;5412;59.450;18.124;2023-08-24T02:16:31;18.10;99.90
10722;DHT22;5412;59.450;18.124;2023-08-24T02:18:57;18.20;99.90
10722;DHT22;5412;59.450;18.124;2023-08-24T02:21:22;18.10;99.90
10722;DHT22;5412;59.450;18.124;2023-08-24T02:23:48;18.10;99.90
10722;DHT22;5412;59.450;18.124;2023-08-24T02:26:14;18.10;99.90
10722;DHT22;5412;59.450;18.124;2023-08-24T02:28:39;18.00;99.90
10722;DHT22;5412;59.450;18.124;2023-08-24T02:31:05;18.10;99.90
10722;DHT22;5412;59.450;18.124;2023-08-24T02:33:31;18.10;99.90
10722;DHT22;5412;59.450;18.124;2023-08-24T02:35:57;18.10;99.90
10722;DHT22;5412;59.450;18.124;2023-08-24T02:38:23;18.10;99.90
10722;DHT22;5412;59.450;18.124;2023-08-24T02:40:49;18.20;99.90
10722;DHT22;5412;59.450;18.124;2023-08-24T02:43:15;18.20;99.90
10722;DHT22;5412;59.450;18.124;2023-08-24T02:45:41;18.20;99.90
10722;DHT22;5412;59.450;18.124;2023-08-24T02:48:06;18.20;99.90
10722;DHT22;5412;59.450;18.124;2023-08-24T02:50:32;18.10;99.90
10722;DHT22;5412;59.450;18.124;2023-08-24T02:52:58;18.00;99.90
10722;DHT22;5412;59.450;18.124;2023-08-24T02:55:24;18.00;99.90
10722;DHT22;5412;59.450;18.124;2023-08-24T02:57:50;18.00;99.90
10722;DHT22;5412;59.450;18.124;2023-08-24T03:00:16;18.10;99.90
10722;DHT22;5412;59.450;18.124;2023-08-24T03:02:42;18.10;99.90
10722;DHT22;5412;59.450;18.124;2023-08-24T03:05:08;18.00;99.90
10722;DHT22;5412;59.450;18.124;2023-08-24T03:07:34;18.00;99.90
10722;DHT22;5412;59.450;18.124;2023-08-24T03:09:59;18.00;99.90
10722;DHT22;5412;59.450;18.124;2023-08-24T03:12:25;18.00;99.90
10722;DHT22;5412;59.450;18.124;2023-08-24T03:14:53;17.80;99.90
10722;DHT22;5412;59.450;18.124;2023-08-24T03:17:20;17.80;99.90
10722;DHT22;5412;59.450;18.124;2023-08-24T03:19:46;17.80;99.90
10722;DHT22;5412;59.450;18.124;2023-08-24T03:22:11;17.70;99.90
10722;DHT22;5412;59.450;18.124;2023-08-24T03:24:37;17.70;99.90
10722;DHT22;5412;59.450;18.124;2023-08-24T03:27:03;17.70;99.90
10722;DHT22;5412;59.450;18.124;2023-08-24T03:29:29;17.70;99.90
10722;DHT22;5412;59.450;18.124;2023-08-24T03:31:54;17.60;99.90
10722;DHT22;5412;59.450;18.124;2023-08-24T03:34:20;17.60;99.90
10722;DHT22;5412;59.450;18.124;2023-08-24T03:36:46;17.70;99.90
10722;DHT22;5412;59.450;18.124;2023-08-24T03:39:13;17.60;99.90
10722;DHT22;5412;59.450;18.124;2023-08-24T03:41:41;17.60;99.90
10722;DHT22;5412;59.450;18.124;2023-08-24T03:44:06;17.60;99.90
10722;DHT22;5412;59.450;18.124;2023-08-24T03:46:32;17.60;99.90
10722;DHT22;5412;59.450;18.124;2023-08-24T03:48:59;17.40;99.90
10722;DHT22;5412;59.450;18.124;2023-08-24T03:51:25;17.40;99.90
10722;DHT22;5412;59.450;18.124;2023-08-24T03:53:50;17.40;99.90
10722;DHT22;5412;59.450;18.124;2023-08-24T03:56:16;17.40;99.90
10722;DHT22;5412;59.450;18.124;2023-08-24T03:58:41;17.30;99.90
10722;DHT22;5412;59.450;18.124;2023-08-24T04:01:10;17.40;99.90
10722;DHT22;5412;59.450;18.124;2023-08-24T04:03:36;17.30;99.90
10722;DHT22;5412;59.450;18.124;2023-08-24T04:06:02;17.30;99.90
10722;DHT22;5412;59.450;18.124;2023-08-24T04:08:27;17.30;99.90
10722;DHT22;5412;59.450;18.124;2023-08-24T04:10:53;17.40;99.90
10722;DHT22;5412;59.450;18.124;2023-08-24T04:13:19;17.40;99.90
10722;DHT22;5412;59.450;18.124;2023-08-24T04:15:45;17.40;99.90
10722;DHT22;5412;59.450;18.124;2023-08-24T04:18:10;17.40;99.90
10722;DHT22;5412;59.450;18.124;2023-08-24T04:20:36;17.50;99.90
10722;DHT22;5412;59.450;18.124;2023-08-24T04:23:02;17.40;99.90
10722;DHT22;5412;59.450;18.124;2023-08-24T04:25:28;17.30;99.90
10722;DHT22;5412;59.450;18.124;2023-08-24T04:27:55;17.20;99.90
10722;DHT22;5412;59.450;18.124;2023-08-24T04:30:20;17.30;99.90
10722;DHT22;5412;59.450;18.124;2023-08-24T04:32:47;17.30;99.90
10722;DHT22;5412;59.450;18.124;2023-08-24T04:35:13;17.40;99.90
10722;DHT22;5412;59.450;18.124;2023-08-24T04:37:39;17.40;99.90
10722;DHT22;5412;59.450;18.124;2023-08-24T04:40:05;17.30;99.90
10722;DHT22;5412;59.450;18.124;2023-08-24T04:42:33;17.30;99.90
10722;DHT22;5412;59.450;18.124;2023-08-24T04:44:59;17.30;99.90
10722;DHT22;5412;59.450;18.124;2023-08-24T04:47:25;17.40;99.90
10722;DHT22;5412;59.450;18.124;2023-08-24T04:49:50;17.50;99.90
10722;DHT22;5412;59.450;18.124;2023-08-24T04:52:16;17.50;99.90
10722;DHT22;5412;59.450;18.124;2023-08-24T04:54:42;17.60;99.90
10722;DHT22;5412;59.450;18.124;2023-08-24T04:57:08;17.70;99.90
10722;DHT22;5412;59.450;18.124;2023-08-24T04:59:34;17.70;99.90
10722;DHT22;5412;59.450;18.124;2023-08-24T05:02:00;17.80;99.90
10722;DHT22;5412;59.450;18.124;2023-08-24T05:04:25;17.90;99.90
10722;DHT22;5412;59.450;18.124;2023-08-24T05:06:51;17.80;99.90
10722;DHT22;5412;59.450;18.124;2023-08-24T05:09:17;17.80;99.90
10722;DHT22;5412;59.450;18.124;2023-08-24T05:11:43;17.80;99.90
10722;DHT22;5412;59.450;18.124;2023-08-24T05:14:09;17.80;99.90
10722;DHT22;5412;59.450;18.124;2023-08-24T05:16:35;17.80;99.90
10722;DHT22;5412;59.450;18.124;2023-08-24T05:19:00;17.90;99.90
10722;DHT22;5412;59.450;18.124;2023-08-24T05:21:28;17.90;99.90
10722;DHT22;5412;59.450;18.124;2023-08-24T05:23:54;18.00;99.90
10722;DHT22;5412;59.450;18.124;2023-08-24T05:26:20;17.80;99.90
10722;DHT22;5412;59.450;18.124;2023-08-24T05:28:48;17.80;99.90
10722;DHT22;5412;59.450;18.124;2023-08-24T05:31:14;17.90;99.90
10722;DHT22;5412;59.450;18.124;2023-08-24T05:33:39;17.90;99.90
10722;DHT22;5412;59.450;18.124;2023-08-24T05:36:05;17.90;99.90
10722;DHT22;5412;59.450;18.124;2023-08-24T05:38:31;17.80;99.90
10722;DHT22;5412;59.450;18.124;2023-08-24T05:40:56;18.00;99.90
10722;DHT22;5412;59.450;18.124;2023-08-24T05:43:22;18.00;99.90
10722;DHT22;5412;59.450;18.124;2023-08-24T05:45:48;18.20;99.90
10722;DHT22;5412;59.450;18.124;2023-08-24T05:48:14;18.10;99.90
10722;DHT22;5412;59.450;18.124;2023-08-24T05:50:44;18.20;99.90
10722;DHT22;5412;59.450;18.124;2023-08-24T05:53:10;18.30;99.90
10722;DHT22;5412;59.450;18.124;2023-08-24T05:55:36;18.20;99.90
10722;DHT22;5412;59.450;18.124;2023-08-24T05:58:02;18.10;99.90
10722;DHT22;5412;59.450;18.124;2023-08-24T06:00:28;18.00;99.90
10722;DHT22;5412;59.450;18.124;2023-08-24T06:02:55;17.90;99.90
10722;DHT22;5412;59.450;18.124;2023-08-24T06:05:20;18.00;99.90
10722;DHT22;5412;59.450;18.124;2023-08-24T06:07:46;18.00;99.90
10722;DHT22;5412;59.450;18.124;2023-08-24T06:10:12;17.90;99.90
10722;DHT22;5412;59.450;18.124;2023-08-24T06:12:38;18.00;99.90
10722;DHT22;5412;59.450;18.124;2023-08-24T06:15:05;17.90;99.90
10722;DHT22;5412;59.450;18.124;2023-08-24T06:17:33;17.90;99.90
10722;DHT22;5412;59.450;18.124;2023-08-24T06:20:02;18.00;99.90
10722;DHT22;5412;59.450;18.124;2023-08-24T06:22:29;18.00;99.90
10722;DHT22;5412;59.450;18.124;2023-08-24T06:24:54;18.20;99.90
10722;DHT22;5412;59.450;18.124;2023-08-24T06:27:25;18.10;99.90
10722;DHT22;5412;59.450;18.124;2023-08-24T06:29:51;18.00;99.90
10722;DHT22;5412;59.450;18.124;2023-08-24T06:32:16;18.20;99.90
10722;DHT22;5412;59.450;18.124;2023-08-24T06:34:42;18.30;99.90
10722;DHT22;5412;59.450;18.124;2023-08-24T06:37:08;18.40;99.90
10722;DHT22;5412;59.450;18.124;2023-08-24T06:39:33;18.40;99.90
10722;DHT22;5412;59.450;18.124;2023-08-24T06:41:59;18.40;99.90
10722;DHT22;5412;59.450;18.124;2023-08-24T06:44:25;18.50;99.90
10722;DHT22;5412;59.450;18.124;2023-08-24T06:46:50;18.60;99.90
10722;DHT22;5412;59.450;18.124;2023-08-24T06:49:16;18.50;99.90
10722;DHT22;5412;59.450;18.124;2023-08-24T06:51:42;18.60;99.90
10722;DHT22;5412;59.450;18.124;2023-08-24T06:54:07;18.70;99.90
10722;DHT22;5412;59.450;18.124;2023-08-24T06:56:33;18.70;99.90
10722;DHT22;5412;59.450;18.124;2023-08-24T06:58:59;18.70;99.90
10722;DHT22;5412;59.450;18.124;2023-08-24T07:01:25;18.80;99.90
10722;DHT22;5412;59.450;18.124;2023-08-24T07:03:51;18.70;99.90
10722;DHT22;5412;59.450;18.124;2023-08-24T07:06:17;18.70;99.90
10722;DHT22;5412;59.450;18.124;2023-08-24T07:08:43;18.70;99.90
10722;DHT22;5412;59.450;18.124;2023-08-24T07:11:08;18.80;99.90
10722;DHT22;5412;59.450;18.124;2023-08-24T07:13:34;19.00;99.90
10722;DHT22;5412;59.450;18.124;2023-08-24T07:16:00;19.00;99.90
10722;DHT22;5412;59.450;18.124;2023-08-24T07:18:28;19.00;99.90
10722;DHT22;5412;59.450;18.124;2023-08-24T07:20:54;19.00;99.90
10722;DHT22;5412;59.450;18.124;2023-08-24T07:23:20;18.80;99.90
10722;DHT22;5412;59.450;18.124;2023-08-24T07:25:45;18.90;99.90
10722;DHT22;5412;59.450;18.124;2023-08-24T07:28:11;18.60;99.90
10722;DHT22;5412;59.450;18.124;2023-08-24T07:30:37;18.60;99.90
10722;DHT22;5412;59.450;18.124;2023-08-24T07:33:03;18.60;99.90
10722;DHT22;5412;59.450;18.124;2023-08-24T07:35:29;18.70;99.90
10722;DHT22;5412;59.450;18.124;2023-08-24T07:37:55;18.70;99.90
10722;DHT22;5412;59.450;18.124;2023-08-24T07:40:21;18.70;99.90
10722;DHT22;5412;59.450;18.124;2023-08-24T07:42:49;18.80;99.90
10722;DHT22;5412;59.450;18.124;2023-08-24T07:45:20;18.80;99.90
10722;DHT22;5412;59.450;18.124;2023-08-24T07:47:46;18.80;99.90
10722;DHT22;5412;59.450;18.124;2023-08-24T07:50:12;18.90;99.90
10722;DHT22;5412;59.450;18.124;2023-08-24T07:52:38;18.80;99.90
10722;DHT22;5412;59.450;18.124;2023-08-24T07:55:05;18.90;99.90
10722;DHT22;5412;59.450;18.124;2023-08-24T07:57:36;19.10;99.90
10722;DHT22;5412;59.450;18.124;2023-08-24T08:00:03;19.20;99.90
10722;DHT22;5412;59.450;18.124;2023-08-24T08:02:30;19.30;99.90
10722;DHT22;5412;59.450;18.124;2023-08-24T08:04:58;19.30;99.90
10722;DHT22;5412;59.450;18.124;2023-08-24T08:07:27;19.50;99.90
10722;DHT22;5412;59.450;18.124;2023-08-24T08:09:54;19.50;99.90
10722;DHT22;5412;59.450;18.124;2023-08-24T08:12:20;19.50;99.90
10722;DHT22;5412;59.450;18.124;2023-08-24T08:14:45;19.60;99.90
10722;DHT22;5412;59.450;18.124;2023-08-24T08:17:11;19.70;99.90
10722;DHT22;5412;59.450;18.124;2023-08-24T08:19:37;19.80;99.90
10722;DHT22;5412;59.450;18.124;2023-08-24T08:22:04;20.10;99.90
10722;DHT22;5412;59.450;18.124;2023-08-24T08:24:29;20.30;99.90
10722;DHT22;5412;59.450;18.124;2023-08-24T08:26:55;20.30;99.90
10722;DHT22;5412;59.450;18.124;2023-08-24T08:29:21;20.70;99.90
10722;DHT22;5412;59.450;18.124;2023-08-24T08:31:47;20.70;99.90
10722;DHT22;5412;59.450;18.124;2023-08-24T08:34:13;20.90;99.90
10722;DHT22;5412;59.450;18.124;2023-08-24T08:36:38;20.80;99.90
10722;DHT22;5412;59.450;18.124;2023-08-24T08:39:04;20.80;99.90
10722;DHT22;5412;59.450;18.124;2023-08-24T08:41:37;20.80;99.90
10722;DHT22;5412;59.450;18.124;2023-08-24T08:44:05;20.80;99.90
10722;DHT22;5412;59.450;18.124;2023-08-24T08:46:32;20.70;99.90
10722;DHT22;5412;59.450;18.124;2023-08-24T08:49:00;20.70;99.90
10722;DHT22;5412;59.450;18.124;2023-08-24T08:51:27;20.90;99.90
10722;DHT22;5412;59.450;18.124;2023-08-24T08:53:53;20.90;99.90
10722;DHT22;5412;59.450;18.124;2023-08-24T08:56:19;20.90;99.90
10722;DHT22;5412;59.450;18.124;2023-08-24T08:58:46;20.80;99.90
10722;DHT22;5412;59.450;18.124;2023-08-24T09:01:13;21.00;99.90
10722;DHT22;5412;59.450;18.124;2023-08-24T09:03:40;21.20;99.90
10722;DHT22;5412;59.450;18.124;2023-08-24T09:06:06;21.50;99.90
10722;DHT22;5412;59.450;18.124;2023-08-24T09:08:32;21.60;99.90
10722;DHT22;5412;59.450;18.124;2023-08-24T09:10:59;21.40;99.90
10722;DHT22;5412;59.450;18.124;2023-08-24T09:13:25;21.20;99.90
10722;DHT22;5412;59.450;18.124;2023-08-24T09:15:52;21.30;99.90
10722;DHT22;5412;59.450;18.124;2023-08-24T09:18:19;21.30;99.90
10722;DHT22;5412;59.450;18.124;2023-08-24T09:20:47;21.20;99.90
10722;DHT22;5412;59.450;18.124;2023-08-24T09:23:19;21.00;99.90
10722;DHT22;5412;59.450;18.124;2023-08-24T09:25:48;20.90;99.90
10722;DHT22;5412;59.450;18.124;2023-08-24T09:28:22;20.70;99.90
10722;DHT22;5412;59.450;18.124;2023-08-24T09:30:55;20.70;99.90
10722;DHT22;5412;59.450;18.124;2023-08-24T09:33:21;20.70;99.90
10722;DHT22;5412;59.450;18.124;2023-08-24T09:35:54;20.70;99.90
10722;DHT22;5412;59.450;18.124;2023-08-24T09:38:27;20.60;99.90
10722;DHT22;5412;59.450;18.124;2023-08-24T09:40:55;20.50;99.90
10722;DHT22;5412;59.450;18.124;2023-08-24T09:43:22;20.50;99.90
10722;DHT22;5412;59.450;18.124;2023-08-24T09:45:52;20.60;99.90
10722;DHT22;5412;59.450;18.124;2023-08-24T09:48:18;21.00;99.90
10722;DHT22;5412;59.450;18.124;2023-08-24T09:50:48;21.20;99.90
10722;DHT22;5412;59.450;18.124;2023-08-24T09:53:21;21.40;99.90
10722;DHT22;5412;59.450;18.124;2023-08-24T09:56:00;21.70;99.90
10722;DHT22;5412;59.450;18.124;2023-08-24T09:58:27;22.10;99.90
10722;DHT22;5412;59.450;18.124;2023-08-24T10:00:55;22.00;99.90
10722;DHT22;5412;59.450;18.124;2023-08-24T10:03:24;21.50;99.90
10722;DHT22;5412;59.450;18.124;2023-08-24T10:05:53;21.30;99.90
10722;DHT22;5412;59.450;18.124;2023-08-24T10:08:26;20.90;99.90
10722;DHT22;5412;59.450;18.124;2023-08-24T10:10:54;20.90;99.90
10722;DHT22;5412;59.450;18.124;2023-08-24T10:13:29;20.70;99.90
10722;DHT22;5412;59.450;18.124;2023-08-24T10:15:56;20.60;99.90
10722;DHT22;5412;59.450;18.124;2023-08-24T10:18:23;20.60;99.90
10722;DHT22;5412;59.450;18.124;2023-08-24T10:20:50;20.50;99.90
10722;DHT22;5412;59.450;18.124;2023-08-24T10:23:17;20.40;99.90
10722;DHT22;5412;59.450;18.124;2023-08-24T10:25:46;20.40;99.90
10722;DHT22;5412;59.450;18.124;2023-08-24T10:28:12;20.60;99.90
10722;DHT22;5412;59.450;18.124;2023-08-24T10:30:39;20.90;99.90
10722;DHT22;5412;59.450;18.124;2023-08-24T10:33:06;21.10;99.90
10722;DHT22;5412;59.450;18.124;2023-08-24T10:35:32;21.30;99.90
10722;DHT22;5412;59.450;18.124;2023-08-24T10:37:59;21.40;99.90
10722;DHT22;5412;59.450;18.124;2023-08-24T10:40:36;21.40;99.90
10722;DHT22;5412;59.450;18.124;2023-08-24T10:43:03;21.50;99.90
10722;DHT22;5412;59.450;18.124;2023-08-24T10:45:54;21.60;99.90
10722;DHT22;5412;59.450;18.124;2023-08-24T10:48:22;21.90;99.90
10722;DHT22;5412;59.450;18.124;2023-08-24T10:51:23;21.90;99.90
10722;DHT22;5412;59.450;18.124;2023-08-24T10:53:55;22.00;99.90
10722;DHT22;5412;59.450;18.124;2023-08-24T10:56:24;22.20;99.90
10722;DHT22;5412;59.450;18.124;2023-08-24T10:59:10;21.80;99.90
10722;DHT22;5412;59.450;18.124;2023-08-24T11:01:57;21.40;99.90
10722;DHT22;5412;59.450;18.124;2023-08-24T11:04:24;21.20;99.90
10722;DHT22;5412;59.450;18.124;2023-08-24T11:06:54;21.00;99.90
10722;DHT22;5412;59.450;18.124;2023-08-24T11:09:20;20.90;99.90
10722;DHT22;5412;59.450;18.124;2023-08-24T11:12:00;20.70;99.90
10722;DHT22;5412;59.450;18.124;2023-08-24T11:14:27;20.70;99.90
10722;DHT22;5412;59.450;18.124;2023-08-24T11:16:58;20.50;99.90
10722;DHT22;5412;59.450;18.124;2023-08-24T11:19:24;20.60;99.90
10722;DHT22;5412;59.450;18.124;2023-08-24T11:21:51;20.70;99.90
10722;DHT22;5412;59.450;18.124;2023-08-24T11:24:17;20.80;99.90
10722;DHT22;5412;59.450;18.124;2023-08-24T11:26:48;20.70;99.90
10722;DHT22;5412;59.450;18.124;2023-08-24T11:29:14;20.70;99.90
10722;DHT22;5412;59.450;18.124;2023-08-24T11:31:44;21.00;99.90
10722;DHT22;5412;59.450;18.124;2023-08-24T11:34:10;21.00;99.90
10722;DHT22;5412;59.450;18.124;2023-08-24T11:36:46;21.10;99.90
10722;DHT22;5412;59.450;18.124;2023-08-24T11:39:19;21.00;99.90
10722;DHT22;5412;59.450;18.124;2023-08-24T11:42:01;21.00;99.90
10722;DHT22;5412;59.450;18.124;2023-08-24T11:44:27;21.10;99.90
10722;DHT22;5412;59.450;18.124;2023-08-24T11:46:55;21.00;99.90
10722;DHT22;5412;59.450;18.124;2023-08-24T11:49:21;21.30;99.90
10722;DHT22;5412;59.450;18.124;2023-08-24T11:51:47;21.50;99.90
10722;DHT22;5412;59.450;18.124;2023-08-24T11:54:19;21.70;99.90
10722;DHT22;5412;59.450;18.124;2023-08-24T11:56:46;21.50;99.90
10722;DHT22;5412;59.450;18.124;2023-08-24T11:59:16;21.60;99.90
10722;DHT22;5412;59.450;18.124;2023-08-24T12:01:42;21.70;99.90
10722;DHT22;5412;59.450;18.124;2023-08-24T12:04:09;22.00;99.90
10722;DHT22;5412;59.450;18.124;2023-08-24T12:06:35;22.20;99.90
10722;DHT22;5412;59.450;18.124;2023-08-24T12:09:00;22.20;99.90
10722;DHT22;5412;59.450;18.124;2023-08-24T12:11:38;22.30;99.90
10722;DHT22;5412;59.450;18.124;2023-08-24T12:14:05;22.30;99.90
10722;DHT22;5412;59.450;18.124;2023-08-24T12:16:33;22.30;99.90
10722;DHT22;5412;59.450;18.124;2023-08-24T12:19:00;22.40;99.90
10722;DHT22;5412;59.450;18.124;2023-08-24T12:21:29;22.40;99.90
10722;DHT22;5412;59.450;18.124;2023-08-24T12:23:59;22.60;99.90
10722;DHT22;5412;59.450;18.124;2023-08-24T12:26:28;22.40;99.90
10722;DHT22;5412;59.450;18.124;2023-08-24T12:29:00;22.50;99.90
10722;DHT22;5412;59.450;18.124;2023-08-24T12:31:27;22.70;99.90
10722;DHT22;5412;59.450;18.124;2023-08-24T12:34:02;23.00;99.90
10722;DHT22;5412;59.450;18.124;2023-08-24T12:36:29;23.20;99.90
10722;DHT22;5412;59.450;18.124;2023-08-24T12:38:55;22.90;99.90
10722;DHT22;5412;59.450;18.124;2023-08-24T12:41:21;22.90;99.90
10722;DHT22;5412;59.450;18.124;2023-08-24T12:43:47;23.10;99.90
10722;DHT22;5412;59.450;18.124;2023-08-24T12:46:13;23.10;99.90
10722;DHT22;5412;59.450;18.124;2023-08-24T12:48:38;23.20;99.90
10722;DHT22;5412;59.450;18.124;2023-08-24T12:51:05;23.10;99.90
10722;DHT22;5412;59.450;18.124;2023-08-24T12:53:30;23.10;99.90
10722;DHT22;5412;59.450;18.124;2023-08-24T12:55:56;23.10;99.90
10722;DHT22;5412;59.450;18.124;2023-08-24T12:58:22;23.50;99.90
10722;DHT22;5412;59.450;18.124;2023-08-24T13:00:47;23.20;99.90
10722;DHT22;5412;59.450;18.124;2023-08-24T13:03:14;23.00;99.90
10722;DHT22;5412;59.450;18.124;2023-08-24T13:05:40;22.60;99.90
10722;DHT22;5412;59.450;18.124;2023-08-24T13:08:05;22.40;99.90
10722;DHT22;5412;59.450;18.124;2023-08-24T13:10:31;22.30;99.90
10722;DHT22;5412;59.450;18.124;2023-08-24T13:12:57;22.10;99.90
10722;DHT22;5412;59.450;18.124;2023-08-24T13:15:23;22.60;99.90
10722;DHT22;5412;59.450;18.124;2023-08-24T13:17:49;23.10;99.90
10722;DHT22;5412;59.450;18.124;2023-08-24T13:20:15;23.40;99.90
10722;DHT22;5412;59.450;18.124;2023-08-24T13:22:41;23.90;99.90
10722;DHT22;5412;59.450;18.124;2023-08-24T13:25:07;24.50;99.90
10722;DHT22;5412;59.450;18.124;2023-08-24T13:27:33;25.00;99.90
10722;DHT22;5412;59.450;18.124;2023-08-24T13:30:02;25.20;99.90
10722;DHT22;5412;59.450;18.124;2023-08-24T13:32:28;25.40;99.90
10722;DHT22;5412;59.450;18.124;2023-08-24T13:34:54;25.60;99.90
10722;DHT22;5412;59.450;18.124;2023-08-24T13:37:21;26.00;99.90
10722;DHT22;5412;59.450;18.124;2023-08-24T13:39:48;26.20;99.90
10722;DHT22;5412;59.450;18.124;2023-08-24T13:42:13;25.90;99.90
10722;DHT22;5412;59.450;18.124;2023-08-24T13:44:39;26.20;99.90
10722;DHT22;5412;59.450;18.124;2023-08-24T13:47:05;26.50;99.90
10722;DHT22;5412;59.450;18.124;2023-08-24T13:49:30;27.00;99.90
10722;DHT22;5412;59.450;18.124;2023-08-24T13:51:56;27.30;99.90
10722;DHT22;5412;59.450;18.124;2023-08-24T13:54:22;27.20;99.90
10722;DHT22;5412;59.450;18.124;2023-08-24T13:56:48;27.20;99.90
10722;DHT22;5412;59.450;18.124;2023-08-24T13:59:15;27.30;99.90
10722;DHT22;5412;59.450;18.124;2023-08-24T14:01:41;27.30;99.90
10722;DHT22;5412;59.450;18.124;2023-08-24T14:04:08;27.70;99.90
10722;DHT22;5412;59.450;18.124;2023-08-24T14:06:34;27.80;99.90
10722;DHT22;5412;59.450;18.124;2023-08-24T14:09:04;27.80;99.90
10722;DHT22;5412;59.450;18.124;2023-08-24T14:11:29;28.20;99.90
10722;DHT22;5412;59.450;18.124;2023-08-24T14:13:55;28.80;99.90
10722;DHT22;5412;59.450;18.124;2023-08-24T14:16:21;28.90;99.90
10722;DHT22;5412;59.450;18.124;2023-08-24T14:18:48;28.10;99.90
10722;DHT22;5412;59.450;18.124;2023-08-24T14:21:14;28.30;99.90
10722;DHT22;5412;59.450;18.124;2023-08-24T14:23:40;28.60;99.90
10722;DHT22;5412;59.450;18.124;2023-08-24T14:26:07;27.70;99.90
10722;DHT22;5412;59.450;18.124;2023-08-24T14:28:50;26.60;99.90
10722;DHT22;5412;59.450;18.124;2023-08-24T14:31:17;25.90;99.90
10722;DHT22;5412;59.450;18.124;2023-08-24T14:33:43;26.10;99.90
10722;DHT22;5412;59.450;18.124;2023-08-24T14:36:09;26.80;99.90
10722;DHT22;5412;59.450;18.124;2023-08-24T14:38:38;26.20;99.90
10722;DHT22;5412;59.450;18.124;2023-08-24T14:41:04;26.90;99.90
10722;DHT22;5412;59.450;18.124;2023-08-24T14:43:30;27.50;99.90
10722;DHT22;5412;59.450;18.124;2023-08-24T14:45:55;27.90;99.90
10722;DHT22;5412;59.450;18.124;2023-08-24T14:48:21;28.50;99.90
10722;DHT22;5412;59.450;18.124;2023-08-24T14:50:47;29.00;99.90
10722;DHT22;5412;59.450;18.124;2023-08-24T14:53:12;28.40;99.90
10722;DHT22;5412;59.450;18.124;2023-08-24T14:55:38;28.60;99.90
10722;DHT22;5412;59.450;18.124;2023-08-24T14:58:04;27.60;99.90
10722;DHT22;5412;59.450;18.124;2023-08-24T15:00:30;27.20;99.90
10722;DHT22;5412;59.450;18.124;2023-08-24T15:02:56;27.30;99.90
10722;DHT22;5412;59.450;18.124;2023-08-24T15:05:22;27.00;99.90
10722;DHT22;5412;59.450;18.124;2023-08-24T15:07:49;25.80;99.90
10722;DHT22;5412;59.450;18.124;2023-08-24T15:10:15;24.60;99.90
10722;DHT22;5412;59.450;18.124;2023-08-24T15:12:43;23.80;99.90
10722;DHT22;5412;59.450;18.124;2023-08-24T15:15:09;23.30;99.90
10722;DHT22;5412;59.450;18.124;2023-08-24T15:17:35;22.90;99.90
10722;DHT22;5412;59.450;18.124;2023-08-24T15:20:02;22.50;99.90
10722;DHT22;5412;59.450;18.124;2023-08-24T15:22:31;22.00;99.90
10722;DHT22;5412;59.450;18.124;2023-08-24T15:24:57;21.60;99.90
10722;DHT22;5412;59.450;18.124;2023-08-24T15:27:24;21.40;99.90
10722;DHT22;5412;59.450;18.124;2023-08-24T15:29:50;20.90;99.90
10722;DHT22;5412;59.450;18.124;2023-08-24T15:32:19;20.70;99.90
10722;DHT22;5412;59.450;18.124;2023-08-24T15:34:45;20.80;99.90
10722;DHT22;5412;59.450;18.124;2023-08-24T15:37:11;21.20;99.90
10722;DHT22;5412;59.450;18.124;2023-08-24T15:39:38;21.00;99.90